EETN

Tallinn Airport

Tallinn, Estonia
METAR EETN 201550Z 17005KT 120V200 4300 -DZ BR FEW004 BKN008 OVC012 17/17 Q1001 NOSIG
Observed Flight Rules
Aug-20 @ 15:50 UTC (33 minutes ago) Instrument Flight Rules
Wind Visibility Clouds Conditions
170° at 5 knots 4,297 meters
  • Few at 400' AGL
  • Broken at 800' AGL
  • Overcast at 1,200' AGL
  • Light Drizzle
  • Mist
Temperatures Readings
Current 17°C / 63°F
Dewpoint 17°C / 63°F
Humidity 100%
Altimeter 29.56" Hg
Pressure 1001 hPa
Elevation 40
METAR EETN 201550Z 17005KT 120V200 4300 -DZ BR FEW004 BKN008 OVC012 17/17 Q1001 NOSIG
Observed Flight Rules
Aug-20 @ 15:50 UTC
(33 minutes ago)
IFR
Wind Visibility
170° at 5 knots 4,297 meters
Clouds
  • Few at 400' AGL
  • Broken at 800' AGL
  • Overcast at 1,200' AGL
Conditions
  • Light Drizzle
  • Mist
Temperature Dewpoint
17°C / 63°F 17°C / 63°F
Humidity Altimeter Pressure
100% 29.56" Hg 1001 hPa